createdAt,value
2019-02-09T00:00:50.275Z,5.7
2019-02-09T00:02:50.266Z,5.7
2019-02-09T00:04:49.732Z,4.9
2019-02-09T00:06:49.883Z,5.5
2019-02-09T00:08:49.907Z,5.2
2019-02-09T00:10:49.893Z,3.8
2019-02-09T00:12:49.946Z,4.4
2019-02-09T00:14:49.997Z,4.4
2019-02-09T00:16:50.219Z,6.2
2019-02-09T00:18:50.164Z,6.2
2019-02-09T00:20:50.263Z,5.3
2019-02-09T00:22:50.257Z,5.3
2019-02-09T00:24:50.324Z,4.8
2019-02-09T00:26:49.448Z,6.5
2019-02-09T00:28:49.478Z,5.6
2019-02-09T00:30:49.468Z,6.1
2019-02-09T00:32:49.669Z,6.1
2019-02-09T00:34:50.067Z,3.9
2019-02-09T00:36:50.072Z,3.9
2019-02-09T00:38:50.231Z,4.7
2019-02-09T00:40:50.257Z,4.7
2019-02-09T00:42:50.431Z,5.2
2019-02-09T00:44:50.411Z,5.2
2019-02-09T00:46:49.542Z,5.6
2019-02-09T00:48:49.611Z,5.1
2019-02-09T00:50:49.793Z,4.4
2019-02-09T00:52:49.779Z,4.4
2019-02-09T00:54:49.820Z,5.8
2019-02-09T00:56:50.088Z,5.7
2019-02-09T00:58:50.188Z,5.7
2019-02-09T01:00:50.233Z,6.5
2019-02-09T01:02:50.154Z,5.2
2019-02-09T01:04:49.574Z,5.2
2019-02-09T01:06:49.783Z,4.1
2019-02-09T01:08:49.852Z,5.3
2019-02-09T01:10:49.909Z,5.3
2019-02-09T01:12:49.939Z,6.9
2019-02-09T01:14:49.940Z,4.7
2019-02-09T01:16:50.127Z,4.7
2019-02-09T01:18:50.153Z,5.4
2019-02-09T01:20:50.142Z,6.3
2019-02-09T01:22:50.148Z,6.3
2019-02-09T01:24:50.154Z,6.4
2019-02-09T01:26:50.312Z,5.8
2019-02-09T01:28:50.413Z,5.8
2019-02-09T01:30:49.571Z,6.2
2019-02-09T01:32:49.602Z,6.2
2019-02-09T01:34:49.953Z,5.4
2019-02-09T01:36:50.050Z,5.4
2019-02-09T05:50:49.676Z,6.6
2019-02-09T05:52:49.692Z,7.2
2019-02-09T05:54:49.832Z,5.8
2019-02-09T05:56:50.051Z,5.8
2019-02-09T05:58:50.034Z,5.8
2019-02-09T06:00:50.145Z,6.8
2019-02-09T06:02:50.167Z,6.6
2019-02-09T06:04:49.754Z,6.6
2019-02-09T06:06:50.057Z,6.6
2019-02-09T06:08:50.006Z,7.0
2019-02-09T06:10:50.108Z,7.0
2019-02-09T06:12:50.073Z,5.8
2019-02-09T06:14:50.081Z,5.8
2019-02-09T06:16:50.155Z,8.8
2019-02-09T06:18:50.214Z,8.8
2019-02-09T06:20:50.278Z,7.9
2019-02-09T06:22:50.307Z,5.8
2019-02-09T06:24:50.326Z,7.6
2019-02-09T06:26:49.618Z,6.6
2019-02-09T06:28:49.661Z,6.6
2019-02-09T06:30:49.685Z,5.4
2019-02-09T06:32:49.730Z,5.8
2019-02-09T06:34:50.024Z,6.6
2019-02-09T06:36:49.579Z,6.3
2019-02-09T06:38:49.662Z,6.3
2019-02-09T06:40:49.707Z,5.2
2019-02-09T06:42:49.765Z,5.0
2019-02-09T06:44:49.739Z,5.0
2019-02-09T06:46:49.934Z,5.4
2019-02-09T06:48:50.026Z,5.4
2019-02-09T06:50:50.110Z,6.4
2019-02-09T06:52:50.191Z,4.7
2019-02-09T06:54:50.211Z,5.4
2019-02-09T06:56:49.464Z,5.4
2019-02-09T06:58:49.477Z,5.6
2019-02-09T07:00:49.619Z,6.1
2019-02-09T07:02:49.615Z,5.6
2019-02-09T07:04:50.026Z,4.5
2019-02-09T07:06:50.137Z,4.5
2019-02-09T07:08:50.156Z,4.7
2019-02-09T07:10:50.177Z,6.3
2019-02-09T07:12:50.147Z,4.5
2019-02-09T07:14:50.276Z,3.6
2019-02-09T07:16:49.483Z,3.6
2019-02-09T07:18:49.529Z,3.2
2019-02-09T07:20:49.549Z,3.4
2019-02-09T07:22:49.593Z,2.9
2019-02-09T07:24:49.689Z,3.9
2019-02-09T07:26:49.895Z,3.9
2019-02-09T07:28:49.867Z,3.1
2019-02-09T07:30:49.853Z,2.4
2019-02-09T07:32:49.930Z,2.7
2019-02-09T07:34:50.371Z,2.6
2019-02-09T07:36:49.612Z,2.6
2019-02-09T07:38:49.710Z,4.0
2019-02-09T07:40:49.658Z,2.8
2019-02-09T07:42:49.676Z,3.1
2019-02-09T07:44:49.847Z,3.4
2019-02-09T07:46:49.989Z,3.4
2019-02-09T07:48:50.009Z,3.3
2019-02-09T07:50:50.037Z,3.5
2019-02-09T07:52:50.087Z,3.6
2019-02-09T07:54:50.149Z,2.8
2019-02-09T07:56:50.304Z,2.8
2019-02-09T07:58:50.329Z,3.1
2019-02-09T08:00:50.270Z,2.6
2019-02-09T08:02:50.329Z,2.4
2019-02-09T08:04:49.964Z,2.4
2019-02-09T08:06:50.132Z,2.5
2019-02-09T08:08:50.146Z,2.8
2019-02-09T08:10:50.133Z,2.9
2019-02-09T08:12:50.195Z,2.6
2019-02-09T08:14:50.230Z,2.6
2019-02-09T08:16:49.483Z,2.3
2019-02-09T08:18:49.528Z,2.4
2019-02-09T08:20:49.584Z,2.8
2019-02-09T08:22:49.647Z,2.2
2019-02-09T08:24:49.728Z,2.2
2019-02-09T08:26:49.895Z,3.4
2019-02-09T08:28:49.860Z,2.8
2019-02-09T08:30:49.850Z,2.5
2019-02-09T08:32:49.872Z,1.9
2019-02-09T08:34:50.366Z,1.9
2019-02-09T08:36:49.584Z,2.6
2019-02-09T08:38:49.622Z,3.7
2019-02-09T08:40:49.727Z,2.0
2019-02-09T08:42:49.764Z,2.1
2019-02-09T08:44:49.842Z,2.1
2019-02-09T08:46:49.946Z,2.1
2019-02-09T08:48:50.025Z,3.1
2019-02-09T08:50:50.126Z,1.8
2019-02-09T08:52:50.124Z,1.8
2019-02-09T08:54:50.136Z,1.8
2019-02-09T08:56:50.351Z,2.7
2019-02-09T08:58:49.490Z,1.9
2019-02-09T09:00:49.593Z,2.5
2019-02-09T09:02:49.602Z,2.5
2019-02-09T09:04:50.109Z,3.4
2019-02-09T09:06:50.261Z,2.1
2019-02-09T09:08:50.248Z,3.2
2019-02-09T09:10:50.208Z,3.2
2019-02-09T09:12:50.217Z,3.0
2019-02-09T09:14:50.396Z,3.4
2019-02-09T09:16:49.552Z,2.0
2019-02-09T09:18:49.711Z,3.3
2019-02-09T09:20:49.727Z,3.3
2019-02-09T09:22:49.696Z,4.2
2019-02-09T09:24:49.756Z,2.7
2019-02-09T09:26:49.943Z,6.5
2019-02-09T09:28:49.997Z,6.5
2019-02-09T09:30:49.977Z,4.3
2019-02-09T09:32:49.959Z,1.8
2019-02-09T09:34:50.351Z,3.3
2019-02-09T09:36:49.595Z,3.3
2019-02-09T09:38:49.716Z,2.9
2019-02-09T09:40:49.775Z,1.7
2019-02-09T09:42:49.829Z,1.7
2019-02-09T09:44:49.919Z,3.6
2019-02-09T09:46:50.078Z,2.5
2019-02-09T09:48:50.094Z,6.0
2019-02-09T09:50:50.061Z,6.0
2019-02-09T09:52:50.154Z,4.7
2019-02-09T09:54:50.216Z,1.9
2019-02-09T09:56:50.328Z,2.7
2019-02-09T09:58:49.499Z,2.7
2019-02-09T10:00:49.461Z,2.1
2019-02-09T10:02:49.453Z,2.9
2019-02-09T10:04:50.102Z,3.7
2019-02-09T10:06:50.227Z,2.0
2019-02-09T10:08:50.345Z,2.0
2019-02-09T10:10:50.351Z,3.4
2019-02-09T10:12:50.286Z,3.7
2019-02-09T10:14:50.414Z,2.9
2019-02-09T10:16:49.644Z,3.7
2019-02-09T10:18:49.698Z,3.7
2019-02-09T10:20:49.765Z,2.7
2019-02-09T10:22:49.728Z,3.7
2019-02-09T10:24:49.915Z,3.1
2019-02-09T10:26:50.138Z,3.1
2019-02-09T10:28:50.257Z,3.5
2019-02-09T10:30:50.233Z,2.5
2019-02-09T10:32:50.213Z,3.6
2019-02-09T10:34:49.709Z,3.1
2019-02-09T10:36:49.916Z,3.1
2019-02-09T10:38:49.859Z,3.2
2019-02-09T10:40:49.864Z,3.4
2019-02-09T10:42:49.801Z,4.5
2019-02-09T10:44:49.875Z,4.2
2019-02-09T10:46:50.052Z,4.2
2019-02-09T10:48:50.145Z,4.3
2019-02-09T10:50:50.170Z,3.3
2019-02-09T10:52:50.125Z,3.0
2019-02-09T10:54:50.184Z,4.0
2019-02-09T10:56:50.329Z,6.4
2019-02-09T10:58:49.513Z,6.4
2019-02-09T11:00:49.706Z,6.2
2019-02-09T11:02:52.121Z,3.5
2019-02-09T11:04:49.895Z,3.7
2019-02-09T11:06:50.111Z,3.3
2019-02-09T11:08:50.234Z,3.3
2019-02-09T11:10:50.223Z,4.8
2019-02-09T11:12:50.278Z,3.2
2019-02-09T11:14:50.335Z,3.5
2019-02-09T11:16:49.526Z,3.5
2019-02-09T11:18:49.700Z,5.2
2019-02-09T11:20:49.681Z,5.5
2019-02-09T11:22:49.748Z,4.2
2019-02-09T11:24:49.953Z,4.2
2019-02-09T11:26:50.247Z,4.8
2019-02-09T11:28:49.494Z,4.3
2019-02-09T11:30:49.667Z,5.9
2019-02-09T11:32:49.879Z,5.9
2019-02-09T11:34:49.466Z,4.9
2019-02-09T11:36:49.782Z,3.4
2019-02-09T11:38:49.983Z,4.8
2019-02-09T11:40:50.276Z,3.6
2019-02-09T11:42:49.941Z,3.6
2019-02-09T11:44:49.906Z,5.2
2019-02-09T11:46:50.055Z,3.8
2019-02-09T11:48:50.200Z,6.1
2019-02-09T11:50:50.213Z,6.1
2019-02-09T11:52:50.156Z,4.9
2019-02-09T11:54:49.599Z,4.9
2019-02-09T11:56:49.967Z,6.1
2019-02-09T11:58:50.190Z,3.6
2019-02-09T12:00:50.398Z,5.7
2019-02-09T12:02:49.662Z,4.0
2019-02-09T12:04:50.212Z,4.0
2019-02-09T12:06:49.626Z,3.3
2019-02-09T12:08:49.861Z,3.3
2019-02-09T12:10:49.988Z,3.3
2019-02-09T12:12:50.234Z,4.7
2019-02-09T12:14:49.495Z,4.7
2019-02-09T12:16:49.802Z,3.3
2019-02-09T12:18:49.982Z,5.1
2019-02-09T12:20:50.062Z,5.1
2019-02-09T12:22:50.307Z,3.7
2019-02-09T12:24:49.548Z,3.7
2019-02-09T12:26:49.930Z,3.0
2019-02-09T12:28:50.059Z,4.5
2019-02-09T12:30:50.438Z,4.7
2019-02-09T12:32:49.761Z,3.2
2019-02-09T12:34:50.387Z,3.2
2019-02-09T12:36:49.695Z,3.3
2019-02-09T12:38:49.826Z,5.1
2019-02-09T12:40:50.003Z,3.4
2019-02-09T12:42:50.182Z,3.4
2019-02-09T12:44:49.551Z,4.7
2019-02-09T12:46:49.970Z,3.3
2019-02-09T12:48:50.101Z,5.3
2019-02-09T12:50:50.396Z,5.3
2019-02-09T12:52:49.730Z,4.0
2019-02-09T12:54:49.894Z,3.4
2019-02-09T12:56:50.122Z,2.4
2019-02-09T12:58:50.370Z,2.4
2019-02-09T13:00:49.640Z,4.1
2019-02-09T13:02:49.958Z,4.3
2019-02-09T13:04:49.557Z,3.8
2019-02-09T13:06:49.864Z,3.9
2019-02-09T13:08:50.076Z,1.9
2019-02-09T13:10:50.300Z,3.3
2019-02-09T13:12:49.570Z,3.3
2019-02-09T13:14:49.819Z,3.2
2019-02-09T13:16:50.091Z,3.8
2019-02-09T13:18:50.289Z,3.2
2019-02-09T13:20:49.580Z,3.2
2019-02-09T13:22:49.783Z,4.7
2019-02-09T13:24:49.923Z,4.8
2019-02-09T13:26:50.224Z,4.8
2019-02-09T13:28:49.502Z,2.6
2019-02-09T13:30:49.679Z,4.0
2019-02-09T13:32:49.961Z,4.0
2019-02-09T13:34:49.553Z,4.6
2019-02-09T13:36:49.886Z,4.2
2019-02-09T13:38:50.049Z,4.1
2019-02-09T13:40:50.413Z,4.1
2019-02-09T13:42:49.597Z,4.4
2019-02-09T13:44:49.815Z,6.6
2019-02-09T13:46:50.061Z,6.6
2019-02-09T13:48:50.286Z,3.2
2019-02-09T13:50:49.510Z,6.5
2019-02-09T13:52:49.681Z,6.5
2019-02-09T13:54:49.883Z,7.0
2019-02-09T13:56:50.263Z,5.7
2019-02-09T13:58:49.458Z,4.6
2019-02-09T14:00:49.629Z,4.6
2019-02-09T14:02:49.850Z,6.2
2019-02-09T14:04:49.531Z,3.2
2019-02-09T14:06:49.904Z,3.2
2019-02-09T14:08:50.058Z,4.4
2019-02-09T14:10:50.217Z,5.6
2019-02-09T14:12:50.351Z,4.5
2019-02-09T14:14:49.632Z,4.5
2019-02-09T14:16:49.995Z,5.5
2019-02-09T14:18:50.290Z,4.8
2019-02-09T14:20:49.508Z,4.8
2019-02-09T14:22:49.695Z,4.8
2019-02-09T14:24:49.928Z,4.9
2019-02-09T14:26:50.238Z,5.3
2019-02-09T14:28:49.526Z,6.2
2019-02-09T14:30:49.664Z,5.9
2019-02-09T14:32:49.842Z,7.2
2019-02-09T14:34:49.457Z,7.2
2019-02-09T14:36:49.924Z,4.0
2019-02-09T14:38:50.171Z,5.1
2019-02-09T14:40:50.353Z,5.8
2019-02-09T14:42:49.589Z,3.5
2019-02-09T14:44:49.727Z,3.5
2019-02-09T14:46:50.004Z,4.9
2019-02-09T14:48:50.053Z,4.4
2019-02-09T14:50:49.987Z,3.4
2019-02-09T14:52:49.988Z,5.0
2019-02-09T14:54:49.997Z,5.0
2019-02-09T14:56:50.267Z,4.0
2019-02-09T14:58:50.360Z,6.2
2019-02-09T15:00:50.476Z,4.6
2019-02-09T15:02:53.775Z,4.6
2019-02-09T15:04:49.621Z,5.8
2019-02-09T15:06:49.961Z,5.8
2019-02-09T15:08:49.963Z,6.5
2019-02-09T15:10:49.946Z,6.5
2019-02-09T15:12:49.980Z,5.2
2019-02-09T15:14:49.992Z,6.7
2019-02-09T15:16:50.130Z,6.9
2019-02-09T15:18:50.117Z,6.3
2019-02-09T15:20:50.127Z,4.0
2019-02-09T15:22:50.169Z,4.0
2019-02-09T15:24:50.218Z,6.5
2019-02-09T15:26:50.413Z,4.9
2019-02-09T15:28:50.423Z,6.2
2019-02-09T15:30:49.589Z,6.3
2019-02-09T15:32:49.756Z,6.3
2019-02-09T15:34:50.184Z,4.8
2019-02-09T15:36:50.411Z,6.1
2019-02-09T15:38:50.349Z,6.3
2019-02-09T15:40:50.417Z,5.4
2019-02-09T15:42:49.557Z,5.4
2019-02-09T15:44:49.744Z,5.9
2019-02-09T15:46:49.976Z,5.3
2019-02-09T15:48:49.984Z,5.1
2019-02-09T15:50:49.994Z,4.9
2019-02-09T15:52:50.033Z,4.9
2019-02-09T15:54:50.097Z,5.0
2019-02-09T15:56:50.360Z,5.3
2019-02-09T15:58:50.301Z,6.3
2019-02-09T16:00:50.432Z,5.6
2019-02-09T16:02:49.467Z,5.6
2019-02-09T16:04:49.875Z,5.1
2019-02-09T16:06:49.973Z,4.7
2019-02-09T16:08:49.922Z,5.7
2019-02-09T16:10:50.044Z,5.7
2019-02-09T16:12:50.067Z,6.2
2019-02-09T16:14:50.172Z,4.8
2019-02-09T16:16:50.360Z,8.0
2019-02-09T16:18:50.417Z,8.0
2019-02-09T16:20:49.475Z,6.2
2019-02-09T16:22:49.538Z,6.0
2019-02-09T16:24:49.557Z,9.1
2019-02-09T16:26:49.811Z,5.9
2019-02-09T16:28:49.837Z,5.9
2019-02-09T16:30:49.902Z,6.6
2019-02-09T16:32:49.918Z,6.6
2019-02-09T16:34:51.316Z,7.4
2019-02-09T16:36:50.440Z,6.6
2019-02-09T16:38:50.418Z,6.6
2019-02-09T16:40:50.424Z,6.6
2019-02-09T16:42:49.685Z,7.6
2019-02-09T16:44:49.618Z,7.9
2019-02-09T16:46:49.871Z,7.9
2019-02-09T16:48:49.921Z,5.2
2019-02-09T16:50:49.910Z,6.5
2019-02-09T16:52:50.053Z,4.2
2019-02-09T16:54:50.065Z,5.2
2019-02-09T16:56:50.463Z,3.4
2019-02-09T16:58:49.504Z,3.4
2019-02-09T17:00:49.603Z,9.3
2019-02-09T17:02:49.582Z,6.1
2019-02-09T17:04:50.131Z,6.1
2019-02-09T17:06:50.310Z,8.8
2019-02-09T17:08:50.334Z,8.8
2019-02-09T17:10:49.434Z,7.3
2019-02-09T17:12:49.457Z,7.6
2019-02-09T17:14:49.563Z,7.1
2019-02-09T17:16:49.824Z,7.1
2019-02-09T17:18:49.861Z,6.4
2019-02-09T17:20:49.910Z,8.2
2019-02-09T17:22:49.881Z,6.4
2019-02-09T17:24:49.775Z,6.2
2019-02-09T17:26:49.997Z,6.2
2019-02-09T17:28:50.001Z,5.2
2019-02-09T17:30:50.053Z,7.3
2019-02-09T17:32:50.081Z,6.7
2019-02-09T17:34:49.594Z,7.6
2019-02-09T17:36:49.903Z,7.6
2019-02-09T17:38:49.867Z,6.5
2019-02-09T17:40:49.834Z,5.0
2019-02-09T17:42:53.254Z,5.6
2019-02-09T17:44:49.544Z,5.6
2019-02-09T17:46:49.711Z,5.4
2019-02-09T17:48:49.716Z,4.5
2019-02-09T17:50:49.686Z,5.2
2019-02-09T17:52:49.690Z,6.0
2019-02-09T17:54:49.745Z,6.7
2019-02-09T17:56:50.031Z,6.7
2019-02-09T17:58:49.999Z,5.2
2019-02-09T18:00:50.039Z,5.7
2019-02-09T18:02:50.083Z,5.7
2019-02-09T18:04:49.551Z,7.0
2019-02-09T18:06:49.793Z,7.4
2019-02-09T18:08:49.777Z,5.7
2019-02-09T18:10:49.872Z,7.4
2019-02-09T18:12:49.869Z,5.9
2019-02-09T18:14:49.849Z,5.9
2019-02-09T18:16:49.988Z,8.6
2019-02-09T18:18:50.002Z,4.3
2019-02-09T18:20:50.054Z,9.3
2019-02-09T18:22:50.084Z,6.0
2019-02-09T18:24:50.048Z,6.0
2019-02-09T18:26:50.180Z,6.3
2019-02-09T18:28:50.276Z,5.9
2019-02-09T18:30:50.330Z,7.0
2019-02-09T18:32:50.280Z,8.1
2019-02-09T18:34:55.943Z,8.1
2019-02-09T18:36:50.467Z,7.6
2019-02-09T18:38:49.559Z,8.1
2019-02-09T18:40:49.609Z,5.5
2019-02-09T18:42:49.619Z,7.7
2019-02-09T18:44:49.643Z,7.7
2019-02-09T18:46:49.924Z,7.0
2019-02-09T18:48:49.969Z,5.8
2019-02-09T18:50:50.064Z,7.6
2019-02-09T18:52:50.100Z,5.5
2019-02-09T18:54:50.107Z,5.5
2019-02-09T18:56:50.369Z,7.0
2019-02-09T18:58:50.403Z,7.2
2019-02-09T19:00:50.397Z,6.7
2019-02-09T19:02:49.447Z,6.7
2019-02-09T19:04:49.850Z,6.1
2019-02-09T19:06:49.946Z,6.1
2019-02-09T19:08:49.929Z,9.4
2019-02-09T19:10:50.009Z,6.7
2019-02-09T19:12:49.974Z,6.7
2019-02-09T19:14:49.999Z,6.2
2019-02-09T19:16:50.097Z,6.4
2019-02-09T19:18:50.124Z,5.0
2019-02-09T19:20:50.150Z,5.5
2019-02-09T19:22:50.153Z,5.5
2019-02-09T19:24:50.242Z,6.4
2019-02-09T19:26:49.465Z,6.2
2019-02-09T19:28:49.553Z,5.6
2019-02-09T19:30:49.560Z,4.9
2019-02-09T19:32:49.673Z,4.9
2019-02-09T19:34:50.163Z,5.4
2019-02-09T19:36:50.281Z,8.7
2019-02-09T19:38:50.312Z,8.7
2019-02-09T19:40:50.272Z,5.4
2019-02-09T19:42:50.325Z,5.4
2019-02-09T19:44:49.487Z,6.9
2019-02-09T19:46:49.792Z,7.8
2019-02-09T19:48:49.793Z,7.8
2019-02-09T19:50:49.805Z,9.7
2019-02-09T19:52:49.811Z,9.7
2019-02-09T19:54:49.820Z,9.9
2019-02-09T19:56:49.976Z,6.0
2019-02-09T19:58:49.947Z,5.9
2019-02-09T20:00:50.005Z,5.9
2019-02-09T20:02:50.067Z,5.5
2019-02-09T20:04:49.580Z,6.5
2019-02-09T20:06:49.943Z,6.5
2019-02-09T20:08:49.981Z,5.8
2019-02-09T20:10:50.018Z,5.2
2019-02-09T20:12:50.015Z,5.2
2019-02-09T20:14:50.080Z,6.0
2019-02-09T20:16:50.274Z,7.5
2019-02-09T20:18:51.798Z,6.9
2019-02-09T20:20:49.893Z,6.9
2019-02-09T20:22:49.920Z,7.1
2019-02-09T20:24:49.914Z,6.9
2019-02-09T20:26:50.068Z,6.9
2019-02-09T20:28:50.165Z,8.0
2019-02-09T20:30:50.214Z,8.0
2019-02-09T20:32:50.388Z,6.5
2019-02-09T20:34:49.844Z,6.5
2019-02-09T20:36:50.094Z,7.6
2019-02-09T20:38:50.218Z,7.6
2019-02-09T20:40:50.389Z,6.2
2019-02-09T20:42:49.601Z,6.6
2019-02-09T20:44:49.684Z,6.1
2019-02-09T20:46:49.879Z,6.4
2019-02-09T20:48:49.987Z,6.4
2019-02-09T20:50:50.168Z,8.9
2019-02-09T20:52:50.231Z,5.9
2019-02-09T20:54:50.590Z,6.3
2019-02-09T20:56:49.624Z,6.0
2019-02-09T20:58:50.011Z,6.0
2019-02-09T21:00:50.353Z,6.7
2019-02-09T21:02:49.828Z,4.8
2019-02-09T21:04:50.107Z,6.4
2019-02-09T21:06:49.779Z,6.4
2019-02-09T21:08:49.929Z,8.2
2019-02-09T21:10:50.465Z,5.7
2019-02-09T21:12:49.852Z,5.7
2019-02-09T21:14:50.008Z,7.7
2019-02-09T21:16:51.660Z,7.7
2019-02-09T21:18:50.118Z,7.1
2019-02-09T21:20:50.372Z,5.6
2019-02-09T21:22:49.740Z,8.5
2019-02-09T21:24:49.919Z,6.6
2019-02-09T21:26:50.154Z,6.6
2019-02-09T21:28:50.289Z,6.6
2019-02-09T21:30:50.410Z,5.9
2019-02-09T21:32:49.656Z,5.9
2019-02-09T21:34:50.035Z,7.2
2019-02-09T21:36:50.303Z,7.2
2019-02-09T21:38:49.527Z,7.1
2019-02-09T21:40:49.588Z,7.3
2019-02-09T21:42:49.665Z,7.1
2019-02-09T21:44:49.824Z,8.4
2019-02-09T21:46:50.171Z,8.3
2019-02-09T21:48:50.390Z,8.3
2019-02-09T21:50:49.611Z,7.6
2019-02-09T21:52:49.900Z,6.9
2019-02-09T21:54:50.258Z,8.9
2019-02-09T21:56:49.552Z,8.9
2019-02-09T21:58:49.873Z,8.1
2019-02-09T22:00:50.022Z,8.7
2019-02-09T22:02:50.122Z,8.5
2019-02-09T22:04:49.777Z,8.8
2019-02-09T22:06:50.137Z,8.8
2019-02-09T22:08:50.283Z,6.8
2019-02-09T22:10:49.644Z,8.4
2019-02-09T22:12:49.944Z,6.5
2019-02-09T22:14:49.917Z,8.5
2019-02-09T22:16:49.713Z,8.5
2019-02-09T22:18:50.347Z,7.4
2019-02-09T22:20:52.650Z,8.5
2019-02-09T22:22:50.251Z,6.8
2019-02-09T22:24:49.598Z,6.8
2019-02-09T22:26:50.098Z,7.9
2019-02-09T22:28:49.598Z,10.6
2019-02-09T22:30:49.796Z,10.5
2019-02-09T22:32:50.381Z,10.0
2019-02-09T22:34:49.482Z,10.0
2019-02-09T22:36:49.898Z,8.3
2019-02-09T22:38:50.441Z,6.3
2019-02-09T22:40:49.647Z,6.3
2019-02-09T22:42:49.852Z,9.9
2019-02-09T22:44:50.225Z,9.9
2019-02-09T22:46:49.576Z,6.8
2019-02-09T22:48:49.913Z,8.4
2019-02-09T22:50:50.103Z,9.1
2019-02-09T22:52:50.296Z,8.4
2019-02-09T22:54:49.493Z,8.4
2019-02-09T22:56:49.781Z,9.5
2019-02-09T22:58:49.954Z,11.3
2019-02-09T23:00:50.088Z,10.2
2019-02-09T23:02:50.084Z,10.2
2019-02-09T23:04:49.575Z,8.1
2019-02-09T23:06:52.619Z,8.7
2019-02-09T23:08:50.019Z,7.6
2019-02-09T23:10:50.193Z,10.1
2019-02-09T23:12:50.226Z,10.1
2019-02-09T23:14:50.286Z,8.8
2019-02-09T23:16:49.555Z,10.2
2019-02-09T23:18:49.785Z,9.4
2019-02-09T23:20:49.841Z,9.4
2019-02-09T23:22:49.918Z,11.2
2019-02-09T23:24:49.977Z,7.3
2019-02-09T23:26:50.202Z,11.8
2019-02-09T23:28:49.471Z,11.0
2019-02-09T23:30:49.483Z,11.0
2019-02-09T23:32:49.704Z,11.0
2019-02-09T23:34:50.287Z,10.2
2019-02-09T23:36:49.658Z,9.3
2019-02-09T23:38:49.870Z,11.6
2019-02-09T23:40:49.971Z,8.3
2019-02-09T23:42:50.096Z,8.3
2019-02-09T23:44:50.244Z,8.8
2019-02-09T23:46:49.605Z,8.3
2019-02-09T23:48:49.708Z,8.3
2019-02-09T23:50:49.717Z,10.2
2019-02-09T23:52:49.876Z,10.2
2019-02-09T23:54:49.974Z,8.4
2019-02-09T23:56:50.242Z,8.8
2019-02-09T23:58:50.361Z,9.6
